sensor_id;sensor_type;location;lat;lon;timestamp;pressure;altitude;pressure_sealevel;temperature;humidity
83664;BME280;73634;47.068;15.426;2024-03-23T00:51:34;96990.66;;;10.49;54.16
83664;BME280;73634;47.068;15.426;2024-03-23T00:54:00;96987.19;;;10.40;54.49
83664;BME280;73634;47.068;15.426;2024-03-23T00:56:25;96984.19;;;10.32;54.50
83664;BME280;73634;47.068;15.426;2024-03-23T00:58:50;96983.22;;;10.28;54.69
83664;BME280;73634;47.068;15.426;2024-03-23T01:03:53;96978.00;;;10.28;55.32
83664;BME280;73634;47.068;15.426;2024-03-23T01:06:19;96979.56;;;10.29;55.25
83664;BME280;73634;47.068;15.426;2024-03-23T01:08:44;96980.41;;;10.25;55.00
83664;BME280;73634;47.068;15.426;2024-03-23T01:11:09;96980.97;;;10.22;55.20
83664;BME280;73634;47.068;15.426;2024-03-23T01:13:35;96974.78;;;10.18;55.33
83664;BME280;73634;47.068;15.426;2024-03-23T01:16:00;96972.75;;;10.15;55.48
83664;BME280;73634;47.068;15.426;2024-03-23T01:18:25;96965.31;;;10.08;55.69
83664;BME280;73634;47.068;15.426;2024-03-23T01:20:54;96966.25;;;9.98;56.11
83664;BME280;73634;47.068;15.426;2024-03-23T01:23:19;96963.25;;;9.91;56.43
83664;BME280;73634;47.068;15.426;2024-03-23T01:27:49;96956.56;;;9.85;56.62
83664;BME280;73634;47.068;15.426;2024-03-23T01:30:15;96957.44;;;9.81;56.83
83664;BME280;73634;47.068;15.426;2024-03-23T01:32:41;96948.38;;;9.78;57.15
83664;BME280;73634;47.068;15.426;2024-03-23T01:35:06;96952.59;;;9.74;57.06
83664;BME280;73634;47.068;15.426;2024-03-23T01:37:32;96948.22;;;9.69;57.38
83664;BME280;73634;47.068;15.426;2024-03-23T01:39:57;96954.75;;;9.67;57.66
83664;BME280;73634;47.068;15.426;2024-03-23T01:42:22;96949.34;;;9.63;57.81
83664;BME280;73634;47.068;15.426;2024-03-23T01:44:48;96942.44;;;9.59;58.18
83664;BME280;73634;47.068;15.426;2024-03-23T01:47:13;96940.03;;;9.62;57.83
83664;BME280;73634;47.068;15.426;2024-03-23T01:52:30;96932.63;;;9.56;58.40
83664;BME280;73634;47.068;15.426;2024-03-23T01:54:55;96929.81;;;9.52;58.56
83664;BME280;73634;47.068;15.426;2024-03-23T01:57:21;96926.44;;;9.52;58.44
83664;BME280;73634;47.068;15.426;2024-03-23T01:59:47;96923.34;;;9.50;58.63
83664;BME280;73634;47.068;15.426;2024-03-23T02:02:13;96920.53;;;9.46;58.46
83664;BME280;73634;47.068;15.426;2024-03-23T02:04:38;96918.22;;;9.45;58.76
83664;BME280;73634;47.068;15.426;2024-03-23T02:07:04;96910.28;;;9.36;58.92
83664;BME280;73634;47.068;15.426;2024-03-23T02:09:31;96906.38;;;9.39;58.51
83664;BME280;73634;47.068;15.426;2024-03-23T02:11:57;96902.16;;;9.43;58.46
83664;BME280;73634;47.068;15.426;2024-03-23T02:17:41;96900.06;;;9.45;58.72
83664;BME280;73634;47.068;15.426;2024-03-23T02:20:06;96894.84;;;9.45;58.67
83664;BME280;73634;47.068;15.426;2024-03-23T02:22:38;96891.22;;;9.46;58.63
83664;BME280;73634;47.068;15.426;2024-03-23T02:25:07;96883.50;;;9.41;58.96
83664;BME280;73634;47.068;15.426;2024-03-23T02:27:33;96882.72;;;9.40;58.89
83664;BME280;73634;47.068;15.426;2024-03-23T02:29:59;96876.25;;;9.38;59.20
83664;BME280;73634;47.068;15.426;2024-03-23T02:32:25;96878.38;;;9.35;58.88
83664;BME280;73634;47.068;15.426;2024-03-23T02:34:50;96865.97;;;9.32;59.24
83664;BME280;73634;47.068;15.426;2024-03-23T02:37:15;96866.50;;;9.29;59.20
83664;BME280;73634;47.068;15.426;2024-03-23T02:42:07;96855.16;;;9.25;59.19
83664;BME280;73634;47.068;15.426;2024-03-23T02:44:32;96861.97;;;9.21;59.25
83664;BME280;73634;47.068;15.426;2024-03-23T02:46:57;96860.63;;;9.24;59.21
83664;BME280;73634;47.068;15.426;2024-03-23T02:49:23;96866.47;;;9.16;59.69
83664;BME280;73634;47.068;15.426;2024-03-23T02:51:48;96863.09;;;9.15;59.60
83664;BME280;73634;47.068;15.426;2024-03-23T02:54:14;96860.56;;;9.10;59.23
83664;BME280;73634;47.068;15.426;2024-03-23T02:56:40;96860.94;;;9.03;60.38
83664;BME280;73634;47.068;15.426;2024-03-23T02:59:05;96856.28;;;9.00;60.35
83664;BME280;73634;47.068;15.426;2024-03-23T03:01:30;96850.91;;;8.97;60.08
83664;BME280;73634;47.068;15.426;2024-03-23T03:05:36;96852.63;;;8.83;60.77
83664;BME280;73634;47.068;15.426;2024-03-23T03:08:01;96843.59;;;8.80;60.13
83664;BME280;73634;47.068;15.426;2024-03-23T03:10:26;96844.94;;;8.78;60.64
83664;BME280;73634;47.068;15.426;2024-03-23T03:12:52;96842.19;;;8.69;60.95
83664;BME280;73634;47.068;15.426;2024-03-23T03:15:17;96842.69;;;8.71;60.89
83664;BME280;73634;47.068;15.426;2024-03-23T03:17:42;96838.06;;;8.68;60.86
83664;BME280;73634;47.068;15.426;2024-03-23T03:20:08;96838.34;;;8.66;60.91
83664;BME280;73634;47.068;15.426;2024-03-23T03:22:38;96836.06;;;8.60;61.01
83664;BME280;73634;47.068;15.426;2024-03-23T03:25:04;96838.19;;;8.58;60.90
83664;BME280;73634;47.068;15.426;2024-03-23T03:29:35;96829.25;;;8.45;61.59
83664;BME280;73634;47.068;15.426;2024-03-23T03:32:01;96829.25;;;8.45;61.52
83664;BME280;73634;47.068;15.426;2024-03-23T03:34:27;96841.97;;;8.42;61.48
83664;BME280;73634;47.068;15.426;2024-03-23T03:36:52;96837.44;;;8.33;62.09
83664;BME280;73634;47.068;15.426;2024-03-23T03:39:17;96837.19;;;8.30;62.48
83664;BME280;73634;47.068;15.426;2024-03-23T03:41:43;96837.72;;;8.27;63.04
83664;BME280;73634;47.068;15.426;2024-03-23T03:44:08;96833.66;;;8.21;63.70
83664;BME280;73634;47.068;15.426;2024-03-23T03:46:33;96834.53;;;8.11;64.44
83664;BME280;73634;47.068;15.426;2024-03-23T03:48:59;96813.56;;;8.08;64.98
83664;BME280;73634;47.068;15.426;2024-03-23T03:51:24;96824.22;;;8.06;65.33
83664;BME280;73634;47.068;15.426;2024-03-23T03:56:01;96815.88;;;7.85;68.00
83664;BME280;73634;47.068;15.426;2024-03-23T03:58:27;96812.31;;;7.81;68.11
83664;BME280;73634;47.068;15.426;2024-03-23T04:00:52;96808.88;;;7.86;67.95
83664;BME280;73634;47.068;15.426;2024-03-23T04:03:18;96820.78;;;7.87;67.78
83664;BME280;73634;47.068;15.426;2024-03-23T04:05:50;96814.84;;;7.86;68.15
83664;BME280;73634;47.068;15.426;2024-03-23T04:08:16;96803.66;;;7.91;67.84
83664;BME280;73634;47.068;15.426;2024-03-23T04:10:41;96807.47;;;7.98;67.72
83664;BME280;73634;47.068;15.426;2024-03-23T04:13:07;96801.53;;;7.98;67.84
83664;BME280;73634;47.068;15.426;2024-03-23T04:15:32;96799.75;;;7.93;67.86
83664;BME280;73634;47.068;15.426;2024-03-23T04:17:58;96795.56;;;7.97;67.70
83664;BME280;73634;47.068;15.426;2024-03-23T04:23:16;96796.06;;;7.99;66.01
83664;BME280;73634;47.068;15.426;2024-03-23T04:25:42;96789.22;;;8.09;65.78
83664;BME280;73634;47.068;15.426;2024-03-23T04:28:07;96784.81;;;8.09;65.23
83664;BME280;73634;47.068;15.426;2024-03-23T04:30:32;96781.72;;;8.07;64.97
83664;BME280;73634;47.068;15.426;2024-03-23T04:32:58;96781.66;;;8.12;63.94
83664;BME280;73634;47.068;15.426;2024-03-23T04:35:24;96785.03;;;8.13;63.67
83664;BME280;73634;47.068;15.426;2024-03-23T04:37:50;96784.53;;;8.11;63.50
83664;BME280;73634;47.068;15.426;2024-03-23T04:40:17;96780.34;;;8.15;63.08
83664;BME280;73634;47.068;15.426;2024-03-23T04:42:43;96767.16;;;8.11;63.70
83664;BME280;73634;47.068;15.426;2024-03-23T04:47:23;96768.88;;;8.21;62.59
83664;BME280;73634;47.068;15.426;2024-03-23T04:49:49;96767.00;;;8.26;62.72
83664;BME280;73634;47.068;15.426;2024-03-23T04:52:15;96766.91;;;8.37;62.60
83664;BME280;73634;47.068;15.426;2024-03-23T04:54:41;96764.16;;;8.47;61.70
83664;BME280;73634;47.068;15.426;2024-03-23T04:57:06;96760.66;;;8.56;61.43
83664;BME280;73634;47.068;15.426;2024-03-23T04:59:32;96761.31;;;8.67;60.94
83664;BME280;73634;47.068;15.426;2024-03-23T05:01:58;96765.38;;;8.73;60.51
83664;BME280;73634;47.068;15.426;2024-03-23T05:04:23;96758.31;;;8.79;60.36
83664;BME280;73634;47.068;15.426;2024-03-23T05:06:49;96762.28;;;8.71;61.40
83664;BME280;73634;47.068;15.426;2024-03-23T05:11:19;96754.53;;;8.28;64.75
83664;BME280;73634;47.068;15.426;2024-03-23T05:13:45;96755.09;;;8.01;66.90
83664;BME280;73634;47.068;15.426;2024-03-23T05:16:11;96747.72;;;7.90;67.21
83664;BME280;73634;47.068;15.426;2024-03-23T05:18:36;96744.88;;;7.91;67.06
83664;BME280;73634;47.068;15.426;2024-03-23T05:21:02;96740.28;;;7.83;68.18
83664;BME280;73634;47.068;15.426;2024-03-23T05:23:28;96738.88;;;8.15;67.47
83664;BME280;73634;47.068;15.426;2024-03-23T05:25:54;96745.41;;;8.36;66.60
83664;BME280;73634;47.068;15.426;2024-03-23T05:28:20;96743.50;;;8.60;65.01
83664;BME280;73634;47.068;15.426;2024-03-23T05:30:55;96749.44;;;8.80;64.70
83664;BME280;73634;47.068;15.426;2024-03-23T05:33:22;96752.81;;;8.61;65.04
83664;BME280;73634;47.068;15.426;2024-03-23T05:37:00;96738.53;;;8.45;66.08
83664;BME280;73634;47.068;15.426;2024-03-23T05:39:26;96739.16;;;8.37;66.34
83664;BME280;73634;47.068;15.426;2024-03-23T05:41:51;96736.91;;;8.68;66.14
83664;BME280;73634;47.068;15.426;2024-03-23T05:44:17;96737.91;;;8.72;65.61
83664;BME280;73634;47.068;15.426;2024-03-23T05:46:42;96725.50;;;8.69;65.63
83664;BME280;73634;47.068;15.426;2024-03-23T05:49:13;96723.69;;;9.02;64.76
83664;BME280;73634;47.068;15.426;2024-03-23T05:51:38;96721.25;;;9.24;62.79
83664;BME280;73634;47.068;15.426;2024-03-23T05:54:04;96720.16;;;8.79;64.73
83664;BME280;73634;47.068;15.426;2024-03-23T05:56:29;96723.28;;;8.95;63.96
83664;BME280;73634;47.068;15.426;2024-03-23T06:01:31;96732.75;;;8.86;64.05
83664;BME280;73634;47.068;15.426;2024-03-23T06:03:57;96722.34;;;9.05;63.15
83664;BME280;73634;47.068;15.426;2024-03-23T06:06:23;96732.19;;;8.89;63.56
83664;BME280;73634;47.068;15.426;2024-03-23T06:08:49;96724.88;;;8.77;63.83
83664;BME280;73634;47.068;15.426;2024-03-23T06:11:14;96726.75;;;8.72;64.28
83664;BME280;73634;47.068;15.426;2024-03-23T06:13:39;96724.97;;;8.86;64.21
83664;BME280;73634;47.068;15.426;2024-03-23T06:16:05;96721.09;;;9.02;64.09
83664;BME280;73634;47.068;15.426;2024-03-23T06:18:30;96715.97;;;9.16;63.57
83664;BME280;73634;47.068;15.426;2024-03-23T06:20:56;96713.22;;;9.53;63.11
83664;BME280;73634;47.068;15.426;2024-03-23T06:23:22;96708.97;;;10.12;60.38
83664;BME280;73634;47.068;15.426;2024-03-23T06:27:57;96700.50;;;11.63;54.62
83664;BME280;73634;47.068;15.426;2024-03-23T06:30:27;96696.47;;;11.79;54.36
83664;BME280;73634;47.068;15.426;2024-03-23T06:32:54;96696.69;;;11.29;55.54
83664;BME280;73634;47.068;15.426;2024-03-23T06:35:20;96695.31;;;11.01;56.25
83664;BME280;73634;47.068;15.426;2024-03-23T06:37:45;96692.13;;;11.04;56.98
83664;BME280;73634;47.068;15.426;2024-03-23T06:40:10;96688.44;;;11.05;57.05
83664;BME280;73634;47.068;15.426;2024-03-23T06:42:36;96691.09;;;11.14;56.41
83664;BME280;73634;47.068;15.426;2024-03-23T06:45:02;96688.31;;;10.79;58.10
83664;BME280;73634;47.068;15.426;2024-03-23T06:47:30;96688.16;;;10.84;58.34
83664;BME280;73634;47.068;15.426;2024-03-23T06:52:08;96688.81;;;11.12;57.54
83664;BME280;73634;47.068;15.426;2024-03-23T06:54:33;96685.91;;;11.14;57.50
83664;BME280;73634;47.068;15.426;2024-03-23T06:56:59;96692.00;;;11.09;57.23
83664;BME280;73634;47.068;15.426;2024-03-23T06:59:24;96693.22;;;10.45;59.22
83664;BME280;73634;47.068;15.426;2024-03-23T07:01:49;96689.25;;;10.25;60.02
83664;BME280;73634;47.068;15.426;2024-03-23T07:04:15;96689.59;;;10.18;60.65
83664;BME280;73634;47.068;15.426;2024-03-23T07:06:45;96691.25;;;10.14;60.89
83664;BME280;73634;47.068;15.426;2024-03-23T07:09:10;96689.06;;;10.44;59.80
83664;BME280;73634;47.068;15.426;2024-03-23T07:11:36;96687.66;;;10.74;58.73
83664;BME280;73634;47.068;15.426;2024-03-23T07:14:01;96689.41;;;10.87;58.26
83664;BME280;73634;47.068;15.426;2024-03-23T07:18:19;96681.47;;;11.14;57.08
83664;BME280;73634;47.068;15.426;2024-03-23T07:20:57;96678.75;;;11.28;56.64
83664;BME280;73634;47.068;15.426;2024-03-23T07:23:24;96677.19;;;11.49;55.88
83664;BME280;73634;47.068;15.426;2024-03-23T07:26:03;96672.09;;;11.44;55.46
83664;BME280;73634;47.068;15.426;2024-03-23T07:28:29;96677.66;;;11.51;54.98
83664;BME280;73634;47.068;15.426;2024-03-23T07:31:08;96679.31;;;11.47;54.94
83664;BME280;73634;47.068;15.426;2024-03-23T07:33:35;96680.03;;;10.77;58.13
83664;BME280;73634;47.068;15.426;2024-03-23T07:36:01;96680.13;;;10.72;58.89
83664;BME280;73634;47.068;15.426;2024-03-23T07:38:28;96674.19;;;10.35;60.25
83664;BME280;73634;47.068;15.426;2024-03-23T07:41:07;96669.94;;;10.40;60.57
83664;BME280;73634;47.068;15.426;2024-03-23T07:45:30;96671.59;;;10.80;59.85
83664;BME280;73634;47.068;15.426;2024-03-23T07:47:56;96673.06;;;11.17;58.09
83664;BME280;73634;47.068;15.426;2024-03-23T07:50:21;96667.28;;;10.98;58.22
83664;BME280;73634;47.068;15.426;2024-03-23T07:52:46;96667.69;;;10.91;58.47
83664;BME280;73634;47.068;15.426;2024-03-23T07:55:12;96674.03;;;10.77;58.90
83664;BME280;73634;47.068;15.426;2024-03-23T07:57:37;96671.59;;;11.02;58.87
83664;BME280;73634;47.068;15.426;2024-03-23T08:00:03;96665.84;;;11.54;57.04
83664;BME280;73634;47.068;15.426;2024-03-23T08:02:28;96673.09;;;11.74;55.98
83664;BME280;73634;47.068;15.426;2024-03-23T08:04:54;96667.41;;;11.55;56.60
83664;BME280;73634;47.068;15.426;2024-03-23T08:07:19;96656.41;;;11.75;55.79
83664;BME280;73634;47.068;15.426;2024-03-23T08:12:11;96652.06;;;12.19;54.76
83664;BME280;73634;47.068;15.426;2024-03-23T08:14:36;96662.63;;;11.96;55.79
83664;BME280;73634;47.068;15.426;2024-03-23T08:17:02;96642.03;;;11.78;56.73
83664;BME280;73634;47.068;15.426;2024-03-23T08:19:27;96648.09;;;12.30;54.85
83664;BME280;73634;47.068;15.426;2024-03-23T08:21:52;96645.47;;;12.39;54.74
83664;BME280;73634;47.068;15.426;2024-03-23T08:24:19;96650.09;;;12.33;54.56
83664;BME280;73634;47.068;15.426;2024-03-23T08:26:45;96631.44;;;12.86;52.99
83664;BME280;73634;47.068;15.426;2024-03-23T08:29:10;96636.09;;;13.65;51.34
83664;BME280;73634;47.068;15.426;2024-03-23T08:31:35;96627.03;;;13.92;49.46
83664;BME280;73634;47.068;15.426;2024-03-23T08:34:00;96625.56;;;14.45;48.26
83664;BME280;73634;47.068;15.426;2024-03-23T08:37:52;96611.91;;;15.79;44.77
83664;BME280;73634;47.068;15.426;2024-03-23T08:40:18;96610.91;;;15.95;44.24
83664;BME280;73634;47.068;15.426;2024-03-23T08:42:43;96612.25;;;16.45;43.04
83664;BME280;73634;47.068;15.426;2024-03-23T08:45:08;96602.25;;;16.35;42.93
83664;BME280;73634;47.068;15.426;2024-03-23T08:47:34;96611.34;;;15.85;43.98
83664;BME280;73634;47.068;15.426;2024-03-23T08:50:00;96608.97;;;15.44;45.27
83664;BME280;73634;47.068;15.426;2024-03-23T08:52:25;96603.63;;;16.17;44.35
83664;BME280;73634;47.068;15.426;2024-03-23T08:54:53;96596.94;;;18.24;38.40
83664;BME280;73634;47.068;15.426;2024-03-23T08:57:19;96585.91;;;19.48;35.66
83664;BME280;73634;47.068;15.426;2024-03-23T08:59:44;96588.06;;;17.43;39.41
83664;BME280;73634;47.068;15.426;2024-03-23T09:03:34;96571.16;;;21.59;31.84
83664;BME280;73634;47.068;15.426;2024-03-23T09:06:00;96563.47;;;22.05;31.21
83664;BME280;73634;47.068;15.426;2024-03-23T09:08:26;96556.63;;;24.28;27.01
83664;BME280;73634;47.068;15.426;2024-03-23T09:10:52;96553.06;;;22.87;28.37
83664;BME280;73634;47.068;15.426;2024-03-23T09:13:17;96562.28;;;25.00;25.35
83664;BME280;73634;47.068;15.426;2024-03-23T09:15:47;96563.38;;;20.44;31.83
83664;BME280;73634;47.068;15.426;2024-03-23T09:18:13;96545.59;;;19.48;34.99
83664;BME280;73634;47.068;15.426;2024-03-23T09:20:39;96546.53;;;19.89;34.50
83664;BME280;73634;47.068;15.426;2024-03-23T09:23:04;96542.72;;;18.61;36.20
83664;BME280;73634;47.068;15.426;2024-03-23T09:27:30;96538.06;;;19.23;34.65
83664;BME280;73634;47.068;15.426;2024-03-23T09:29:56;96527.16;;;19.25;34.69
83664;BME280;73634;47.068;15.426;2024-03-23T09:32:21;96524.88;;;21.32;31.50
83664;BME280;73634;47.068;15.426;2024-03-23T09:34:46;96513.28;;;22.80;28.24
83664;BME280;73634;47.068;15.426;2024-03-23T09:37:12;96507.91;;;22.23;29.33
83664;BME280;73634;47.068;15.426;2024-03-23T09:39:37;96510.97;;;23.39;27.38
83664;BME280;73634;47.068;15.426;2024-03-23T09:42:03;96507.22;;;22.97;27.83
83664;BME280;73634;47.068;15.426;2024-03-23T09:44:29;96506.09;;;25.32;24.94
83664;BME280;73634;47.068;15.426;2024-03-23T09:46:55;96508.88;;;21.86;29.77
83664;BME280;73634;47.068;15.426;2024-03-23T09:51:11;96492.84;;;22.84;28.65
83664;BME280;73634;47.068;15.426;2024-03-23T09:53:37;96486.72;;;22.34;28.87
83664;BME280;73634;47.068;15.426;2024-03-23T09:56:02;96487.06;;;21.31;30.98
83664;BME280;73634;47.068;15.426;2024-03-23T09:58:28;96490.88;;;18.65;34.69
83664;BME280;73634;47.068;15.426;2024-03-23T10:00:53;96491.22;;;18.03;36.32
83664;BME280;73634;47.068;15.426;2024-03-23T10:03:19;96484.16;;;19.47;33.42
83664;BME280;73634;47.068;15.426;2024-03-23T10:05:44;96483.81;;;20.16;30.79
83664;BME280;73634;47.068;15.426;2024-03-23T10:10:39;96478.97;;;20.58;31.59
83664;BME280;73634;47.068;15.426;2024-03-23T10:15:42;96456.47;;;25.14;25.85
83664;BME280;73634;47.068;15.426;2024-03-23T10:18:18;96461.38;;;22.33;30.26
83664;BME280;73634;47.068;15.426;2024-03-23T10:20:47;96465.84;;;19.91;33.80
83664;BME280;73634;47.068;15.426;2024-03-23T10:23:16;96448.81;;;23.25;28.77
83664;BME280;73634;47.068;15.426;2024-03-23T10:25:42;96448.06;;;23.25;28.72
83664;BME280;73634;47.068;15.426;2024-03-23T10:28:08;96446.91;;;24.17;26.98
83664;BME280;73634;47.068;15.426;2024-03-23T10:30:34;96437.81;;;21.95;30.19
83664;BME280;73634;47.068;15.426;2024-03-23T10:33:07;96434.88;;;22.57;29.06
83664;BME280;73634;47.068;15.426;2024-03-23T10:35:33;96425.56;;;25.20;26.00
83664;BME280;73634;47.068;15.426;2024-03-23T10:39:24;96433.16;;;24.36;26.75
83664;BME280;73634;47.068;15.426;2024-03-23T10:41:50;96440.88;;;24.13;27.07
83664;BME280;73634;47.068;15.426;2024-03-23T10:44:19;96428.50;;;24.92;25.75
83664;BME280;73634;47.068;15.426;2024-03-23T10:46:45;96423.44;;;21.96;29.48
83664;BME280;73634;47.068;15.426;2024-03-23T10:49:10;96416.28;;;22.97;28.55
83664;BME280;73634;47.068;15.426;2024-03-23T10:51:37;96410.22;;;24.53;26.06
83664;BME280;73634;47.068;15.426;2024-03-23T10:54:04;96416.38;;;23.84;26.82
83664;BME280;73634;47.068;15.426;2024-03-23T10:56:32;96400.59;;;25.11;24.96
83664;BME280;73634;47.068;15.426;2024-03-23T11:02:06;96386.19;;;24.15;27.09
83664;BME280;73634;47.068;15.426;2024-03-23T11:04:37;96389.22;;;23.44;27.46
83664;BME280;73634;47.068;15.426;2024-03-23T11:09:51;96376.38;;;24.09;26.41
83664;BME280;73634;47.068;15.426;2024-03-23T11:17:22;96351.97;;;26.21;23.02
83664;BME280;73634;47.068;15.426;2024-03-23T11:20:01;96342.03;;;26.88;22.19
83664;BME280;73634;47.068;15.426;2024-03-23T11:27:15;96321.59;;;25.04;24.29
83664;BME280;73634;47.068;15.426;2024-03-23T11:29:41;96314.78;;;23.69;25.89
83664;BME280;73634;47.068;15.426;2024-03-23T11:32:09;96305.50;;;25.15;24.62
83664;BME280;73634;47.068;15.426;2024-03-23T11:34:35;96299.81;;;26.83;22.52
83664;BME280;73634;47.068;15.426;2024-03-23T11:37:04;96298.97;;;26.00;23.54
83664;BME280;73634;47.068;15.426;2024-03-23T11:39:31;96295.38;;;29.08;20.27
83664;BME280;73634;47.068;15.426;2024-03-23T11:41:57;96289.84;;;26.68;22.22
83664;BME280;73634;47.068;15.426;2024-03-23T11:44:23;96282.28;;;27.22;21.74
83664;BME280;73634;47.068;15.426;2024-03-23T11:46:50;96267.63;;;29.27;19.34
83664;BME280;73634;47.068;15.426;2024-03-23T11:51:05;96270.84;;;27.58;22.04
83664;BME280;73634;47.068;15.426;2024-03-23T11:53:31;96267.31;;;24.94;25.61
83664;BME280;73634;47.068;15.426;2024-03-23T11:55:58;96246.53;;;28.33;21.82
83664;BME280;73634;47.068;15.426;2024-03-23T11:58:25;96256.88;;;27.34;21.85
83664;BME280;73634;47.068;15.426;2024-03-23T12:00:52;96241.97;;;26.17;23.45
83664;BME280;73634;47.068;15.426;2024-03-23T12:03:19;96235.06;;;25.73;24.32
83664;BME280;73634;47.068;15.426;2024-03-23T12:05:50;96228.34;;;26.12;23.93
83664;BME280;73634;47.068;15.426;2024-03-23T12:08:38;96220.34;;;27.96;21.87
83664;BME280;73634;47.068;15.426;2024-03-23T12:11:08;96217.06;;;23.98;27.01
83664;BME280;73634;47.068;15.426;2024-03-23T12:15:35;96209.03;;;25.07;25.22
83664;BME280;73634;47.068;15.426;2024-03-23T12:18:10;96193.41;;;26.85;22.98
83664;BME280;73634;47.068;15.426;2024-03-23T12:20:37;96195.03;;;27.68;22.14
83664;BME280;73634;47.068;15.426;2024-03-23T12:23:12;96193.16;;;24.36;25.13
83664;BME280;73634;47.068;15.426;2024-03-23T12:25:39;96190.03;;;23.62;27.03
83664;BME280;73634;47.068;15.426;2024-03-23T12:28:05;96187.09;;;24.35;26.36
83664;BME280;73634;47.068;15.426;2024-03-23T12:30:39;96189.78;;;22.80;29.08
83664;BME280;73634;47.068;15.426;2024-03-23T12:33:05;96179.34;;;22.34;30.25
83664;BME280;73634;47.068;15.426;2024-03-23T12:35:31;96175.63;;;23.08;29.01
83664;BME280;73634;47.068;15.426;2024-03-23T12:40:28;96166.19;;;24.68;26.30
83664;BME280;73634;47.068;15.426;2024-03-23T12:42:54;96160.13;;;24.94;25.07
83664;BME280;73634;47.068;15.426;2024-03-23T12:45:19;96149.63;;;25.14;25.35
83664;BME280;73634;47.068;15.426;2024-03-23T12:47:45;96151.34;;;24.70;24.45
83664;BME280;73634;47.068;15.426;2024-03-23T12:50:10;96145.81;;;25.62;24.68
83664;BME280;73634;47.068;15.426;2024-03-23T12:52:36;96145.69;;;25.22;24.39
83664;BME280;73634;47.068;15.426;2024-03-23T12:55:02;96151.75;;;25.73;22.76
83664;BME280;73634;47.068;15.426;2024-03-23T12:57:31;96149.16;;;26.32;22.20
83664;BME280;73634;47.068;15.426;2024-03-23T12:59:56;96139.75;;;24.84;24.44
83664;BME280;73634;47.068;15.426;2024-03-23T13:04:53;96132.78;;;26.50;22.92
83664;BME280;73634;47.068;15.426;2024-03-23T13:07:20;96131.59;;;27.39;21.79
83664;BME280;73634;47.068;15.426;2024-03-23T13:09:46;96125.44;;;29.47;19.38
83664;BME280;73634;47.068;15.426;2024-03-23T13:12:11;96117.34;;;29.94;18.94
83664;BME280;73634;47.068;15.426;2024-03-23T13:14:40;96109.50;;;28.67;20.02
83664;BME280;73634;47.068;15.426;2024-03-23T13:17:06;96117.09;;;26.36;22.06
83664;BME280;73634;47.068;15.426;2024-03-23T13:19:32;96107.94;;;25.97;22.74
83664;BME280;73634;47.068;15.426;2024-03-23T13:21:58;96103.69;;;28.43;19.99
83664;BME280;73634;47.068;15.426;2024-03-23T13:24:27;96110.50;;;26.60;21.60
83664;BME280;73634;47.068;15.426;2024-03-23T13:27:53;96098.78;;;26.74;21.95
83664;BME280;73634;47.068;15.426;2024-03-23T13:30:19;96090.19;;;25.20;23.86
83664;BME280;73634;47.068;15.426;2024-03-23T13:32:44;96093.19;;;25.69;23.60
83664;BME280;73634;47.068;15.426;2024-03-23T13:35:10;96083.03;;;25.41;23.28
83664;BME280;73634;47.068;15.426;2024-03-23T13:37:35;96087.41;;;25.74;23.17
83664;BME280;73634;47.068;15.426;2024-03-23T13:40:00;96077.63;;;26.99;21.72
83664;BME280;73634;47.068;15.426;2024-03-23T13:42:26;96067.63;;;25.29;22.96
83664;BME280;73634;47.068;15.426;2024-03-23T13:44:51;96056.69;;;26.45;21.24
83664;BME280;73634;47.068;15.426;2024-03-23T13:50:00;96069.19;;;24.49;22.95
83664;BME280;73634;47.068;15.426;2024-03-23T13:52:25;96068.22;;;24.02;23.02
83664;BME280;73634;47.068;15.426;2024-03-23T13:54:51;96076.25;;;24.32;22.99
83664;BME280;73634;47.068;15.426;2024-03-23T13:57:17;96064.56;;;25.53;21.48
83664;BME280;73634;47.068;15.426;2024-03-23T13:59:45;96074.13;;;23.45;24.52
83664;BME280;73634;47.068;15.426;2024-03-23T14:02:11;96071.91;;;22.18;27.71
83664;BME280;73634;47.068;15.426;2024-03-23T14:04:36;96065.38;;;23.48;26.51
83664;BME280;73634;47.068;15.426;2024-03-23T14:07:03;96065.06;;;23.39;25.71
83664;BME280;73634;47.068;15.426;2024-03-23T14:09:28;96062.59;;;23.62;24.45
83664;BME280;73634;47.068;15.426;2024-03-23T14:14:31;96065.28;;;21.11;27.63
83664;BME280;73634;47.068;15.426;2024-03-23T14:16:56;96055.28;;;22.14;26.69
83664;BME280;73634;47.068;15.426;2024-03-23T14:19:22;96058.69;;;22.08;26.78
83664;BME280;73634;47.068;15.426;2024-03-23T14:21:47;96061.00;;;22.02;26.69
83664;BME280;73634;47.068;15.426;2024-03-23T14:24:12;96056.22;;;21.47;27.22
83664;BME280;73634;47.068;15.426;2024-03-23T14:26:38;96045.66;;;22.45;26.26
83664;BME280;73634;47.068;15.426;2024-03-23T14:29:04;96048.66;;;24.49;24.26
83664;BME280;73634;47.068;15.426;2024-03-23T14:31:29;96035.72;;;24.78;23.94
83664;BME280;73634;47.068;15.426;2024-03-23T14:36:34;96044.06;;;21.71;27.47
83664;BME280;73634;47.068;15.426;2024-03-23T14:38:59;96040.72;;;21.28;27.68
83664;BME280;73634;47.068;15.426;2024-03-23T14:41:24;96039.22;;;21.48;27.40
83664;BME280;73634;47.068;15.426;2024-03-23T14:43:50;96043.69;;;21.69;26.69
83664;BME280;73634;47.068;15.426;2024-03-23T14:46:18;96034.31;;;20.83;27.80
83664;BME280;73634;47.068;15.426;2024-03-23T14:48:44;96038.03;;;20.43;28.66
83664;BME280;73634;47.068;15.426;2024-03-23T14:51:11;96037.66;;;20.51;28.61
83664;BME280;73634;47.068;15.426;2024-03-23T14:53:38;96029.34;;;20.39;28.99
83664;BME280;73634;47.068;15.426;2024-03-23T14:56:08;96033.50;;;20.47;29.01
83664;BME280;73634;47.068;15.426;2024-03-23T15:01:08;96040.91;;;20.06;29.71
83664;BME280;73634;47.068;15.426;2024-03-23T15:03:35;96044.31;;;20.10;29.83
83664;BME280;73634;47.068;15.426;2024-03-23T15:06:00;96029.59;;;20.09;29.65
83664;BME280;73634;47.068;15.426;2024-03-23T15:08:27;96044.06;;;20.43;30.20